createdAt,value
2023-04-21T00:01:32.292Z,100764.50
2023-04-21T00:04:01.336Z,100761.88
2023-04-21T00:06:31.454Z,100765.53
2023-04-21T00:08:58.995Z,100764.34
2023-04-21T00:11:26.820Z,100760.09
2023-04-21T00:13:54.640Z,100769.28
2023-04-21T00:16:22.595Z,100758.53
2023-04-21T00:18:49.994Z,100760.78
2023-04-21T00:21:18.630Z,100757.09
2023-04-21T00:23:47.460Z,100752.88
2023-04-21T00:26:15.279Z,100753.50
2023-04-21T00:28:45.555Z,100749.78
2023-04-21T00:31:12.911Z,100742.28
2023-04-21T00:33:40.918Z,100743.03
2023-04-21T00:36:08.494Z,100745.06
2023-04-21T00:38:36.580Z,100741.31
2023-04-21T00:41:04.163Z,100748.34
2023-04-21T00:43:31.626Z,100742.06
2023-04-21T00:46:00.074Z,100733.50
2023-04-21T00:48:27.490Z,100733.50
2023-04-21T00:50:54.942Z,100734.50
2023-04-21T00:53:22.474Z,100734.38
2023-04-21T00:55:50.463Z,100729.00
2023-04-21T00:58:18.497Z,100728.28
2023-04-21T01:00:46.846Z,100730.66
2023-04-21T01:03:14.466Z,100731.03
2023-04-21T01:05:43.005Z,100724.22
2023-04-21T01:08:13.306Z,100732.25
2023-04-21T01:10:40.753Z,100730.69
2023-04-21T01:13:08.082Z,100727.31
2023-04-21T01:15:35.732Z,100737.13
2023-04-21T01:18:03.281Z,100742.63
2023-04-21T01:20:30.652Z,100738.19
2023-04-21T01:22:59.084Z,100738.09
2023-04-21T01:25:28.360Z,100743.72
2023-04-21T01:27:56.530Z,100739.28
2023-04-21T01:30:23.844Z,100745.03
2023-04-21T01:32:51.896Z,100739.53
2023-04-21T01:35:19.458Z,100738.09
2023-04-21T01:37:46.846Z,100740.50
2023-04-21T01:40:14.348Z,100738.59
2023-04-21T01:42:43.467Z,100730.19
2023-04-21T01:45:13.024Z,100731.97
2023-04-21T01:47:40.603Z,100731.25
2023-04-21T01:50:08.660Z,100729.56
2023-04-21T01:52:36.218Z,100731.25
2023-04-21T01:55:04.242Z,100728.16
2023-04-21T01:57:31.683Z,100729.94
2023-04-21T01:59:59.050Z,100719.53
2023-04-21T02:02:28.104Z,100721.31
2023-04-21T02:04:55.619Z,100714.13
2023-04-21T02:07:23.084Z,100723.22
2023-04-21T02:09:50.472Z,100718.09
2023-04-21T02:12:18.232Z,100726.25
2023-04-21T02:14:48.185Z,100711.97
2023-04-21T02:17:15.713Z,100714.59
2023-04-21T02:19:43.404Z,100713.19
2023-04-21T02:22:12.979Z,100714.88
2023-04-21T02:24:41.145Z,100716.16
2023-04-21T02:27:08.756Z,100707.78
2023-04-21T02:29:36.134Z,100713.41
2023-04-21T02:32:14.233Z,100725.13
2023-04-21T02:34:51.381Z,100713.41
2023-04-21T02:37:19.666Z,100716.03
2023-04-21T02:39:47.449Z,100708.13
2023-04-21T02:42:14.957Z,100719.63
2023-04-21T02:44:43.088Z,100716.59
2023-04-21T02:47:11.329Z,100724.25
2023-04-21T02:49:42.315Z,100725.53
2023-04-21T02:52:10.294Z,100731.91
2023-04-21T02:54:37.583Z,100729.25
2023-04-21T02:57:05.283Z,100733.66
2023-04-21T02:59:33.726Z,100735.25
2023-04-21T03:02:01.356Z,100738.63
2023-04-21T03:04:30.194Z,100738.84
2023-04-21T03:06:58.376Z,100745.09
2023-04-21T03:09:26.418Z,100745.94
2023-04-21T03:11:53.702Z,100751.19
2023-04-21T03:14:21.346Z,100745.94
2023-04-21T03:16:48.957Z,100753.09
2023-04-21T03:19:16.540Z,100755.28
2023-04-21T03:21:45.498Z,100758.38
2023-04-21T03:24:12.757Z,100752.13
2023-04-21T03:26:43.031Z,100755.69
2023-04-21T03:29:10.527Z,100764.38
2023-04-21T03:31:37.987Z,100763.28
2023-04-21T03:34:05.460Z,100758.38
2023-04-21T03:36:32.891Z,100760.75
2023-04-21T03:39:12.753Z,100762.94
2023-04-21T03:41:47.222Z,100760.03
2023-04-21T03:44:14.930Z,100760.31
2023-04-21T03:46:42.329Z,100758.88
2023-04-21T03:49:10.201Z,100760.47
2023-04-21T03:51:37.624Z,100757.00
2023-04-21T03:54:04.988Z,100763.59
2023-04-21T03:56:32.320Z,100762.75
2023-04-21T03:59:00.904Z,100749.25
2023-04-21T04:01:28.904Z,100752.94
2023-04-21T04:03:56.779Z,100757.25
2023-04-21T04:06:24.362Z,100752.69
2023-04-21T04:08:51.667Z,100760.97
2023-04-21T04:11:18.926Z,100760.63
2023-04-21T04:13:46.236Z,100757.00
2023-04-21T04:16:13.996Z,100759.06
2023-04-21T04:18:41.293Z,100757.47
2023-04-21T04:21:09.200Z,100752.59
2023-04-21T04:23:36.718Z,100759.38
2023-04-21T04:26:07.401Z,100766.34
2023-04-21T04:28:35.010Z,100768.16
2023-04-21T04:31:04.854Z,100765.88
2023-04-21T04:33:32.322Z,100768.03
2023-04-21T04:35:59.782Z,100778.56
2023-04-21T04:38:28.431Z,100780.28
2023-04-21T04:40:57.519Z,100776.69
2023-04-21T04:43:25.597Z,100779.19
2023-04-21T04:45:53.354Z,100779.91
2023-04-21T04:48:20.787Z,100785.75
2023-04-21T04:50:48.104Z,100780.97
2023-04-21T04:53:15.911Z,100785.38
2023-04-21T04:55:43.221Z,100794.22
2023-04-21T04:58:11.376Z,100794.59
2023-04-21T05:00:38.756Z,100799.16
2023-04-21T05:03:07.266Z,100792.56
2023-04-21T05:05:35.171Z,100796.75
2023-04-21T05:08:02.876Z,100796.03
2023-04-21T05:10:31.140Z,100799.63
2023-04-21T05:12:58.495Z,100800.84
2023-04-21T05:15:26.023Z,100803.78
2023-04-21T05:17:53.416Z,100810.81
2023-04-21T05:20:21.152Z,100810.13
2023-04-21T05:22:49.431Z,100816.44
2023-04-21T05:25:16.804Z,100817.38
2023-04-21T05:27:44.114Z,100818.16
2023-04-21T05:30:11.635Z,100826.03
2023-04-21T05:32:39.021Z,100815.53
2023-04-21T05:35:07.038Z,100824.03
2023-04-21T05:37:34.332Z,100825.19
2023-04-21T05:40:02.011Z,100830.09
2023-04-21T05:42:29.359Z,100830.03
2023-04-21T05:44:56.721Z,100827.72
2023-04-21T05:47:24.422Z,100832.16
2023-04-21T05:49:53.679Z,100835.06
2023-04-21T05:52:23.964Z,100830.69
2023-04-21T05:54:51.757Z,100836.75
2023-04-21T05:57:19.080Z,100836.88
2023-04-21T05:59:46.380Z,100837.91
2023-04-21T06:02:14.165Z,100830.09
2023-04-21T06:04:41.836Z,100833.59
2023-04-21T06:07:10.551Z,100846.47
2023-04-21T06:09:38.359Z,100841.91
2023-04-21T06:12:06.622Z,100839.63
2023-04-21T06:14:33.888Z,100835.44
2023-04-21T06:17:01.627Z,100842.25
2023-04-21T06:19:28.913Z,100837.09
2023-04-21T06:21:57.283Z,100834.03
2023-04-21T06:24:25.712Z,100832.34
2023-04-21T06:26:53.747Z,100829.25
2023-04-21T06:29:21.353Z,100824.16
2023-04-21T06:31:48.724Z,100839.19
2023-04-21T06:34:16.377Z,100832.09
2023-04-21T06:36:43.778Z,100830.44
2023-04-21T06:39:11.460Z,100828.63
2023-04-21T06:41:39.259Z,100828.91
2023-04-21T06:44:06.573Z,100826.25
2023-04-21T06:46:34.981Z,100831.97
2023-04-21T06:49:02.762Z,100832.50
2023-04-21T06:51:30.694Z,100849.38
2023-04-21T06:53:58.571Z,100845.25
2023-04-21T06:56:29.597Z,100846.38
2023-04-21T06:58:57.291Z,100843.59
2023-04-21T07:01:25.542Z,100849.22
2023-04-21T07:03:53.546Z,100852.16
2023-04-21T07:06:21.002Z,100846.63
2023-04-21T07:08:48.290Z,100852.47
2023-04-21T07:11:16.057Z,100848.47
2023-04-21T07:13:43.449Z,100844.59
2023-04-21T07:16:10.955Z,100851.69
2023-04-21T07:18:39.650Z,100847.91
2023-04-21T07:21:07.010Z,100858.41
2023-04-21T07:23:35.741Z,100856.28
2023-04-21T07:26:03.297Z,100861.81
2023-04-21T07:28:31.475Z,100858.03
2023-04-21T07:31:00.951Z,100865.31
2023-04-21T07:33:30.982Z,100865.69
2023-04-21T07:35:59.090Z,100868.03
2023-04-21T07:38:27.094Z,100878.97
2023-04-21T07:40:54.942Z,100869.72
2023-04-21T07:43:22.674Z,100880.88
2023-04-21T07:45:52.390Z,100871.31
2023-04-21T07:48:19.980Z,100882.72
2023-04-21T07:50:47.433Z,100872.94
2023-04-21T07:53:15.645Z,100877.50
2023-04-21T07:55:42.893Z,100876.72
2023-04-21T07:58:11.080Z,100877.81
2023-04-21T08:00:41.782Z,100883.06
2023-04-21T08:03:09.392Z,100886.13
2023-04-21T08:05:40.966Z,100888.88
2023-04-21T08:08:09.302Z,100893.41
2023-04-21T08:10:36.819Z,100888.53
2023-04-21T08:13:06.871Z,100888.34
2023-04-21T08:15:35.055Z,100887.41
2023-04-21T08:18:03.347Z,100887.00
2023-04-21T08:20:31.300Z,100905.84
2023-04-21T08:22:58.730Z,100901.22
2023-04-21T08:25:26.668Z,100903.28
2023-04-21T08:27:54.908Z,100899.22
2023-04-21T08:30:22.287Z,100893.09
2023-04-21T08:32:49.644Z,100894.47
2023-04-21T08:35:17.437Z,100897.16
2023-04-21T08:37:46.645Z,100905.31
2023-04-21T08:40:14.195Z,100916.63
2023-04-21T08:42:42.306Z,100911.09
2023-04-21T08:45:09.941Z,100908.78
2023-04-21T08:47:38.795Z,100914.22
2023-04-21T08:50:07.915Z,100916.97
2023-04-21T08:52:35.299Z,100912.19
2023-04-21T08:55:03.096Z,100916.72
2023-04-21T08:57:30.469Z,100921.44
2023-04-21T08:59:58.171Z,100917.28
2023-04-21T09:02:26.228Z,100921.41
2023-04-21T09:04:59.998Z,100916.28
2023-04-21T09:07:32.237Z,100913.88
2023-04-21T09:10:03.337Z,100923.47
2023-04-21T09:12:31.580Z,100925.34
2023-04-21T09:15:00.939Z,100911.06
2023-04-21T09:17:32.624Z,100914.03
2023-04-21T09:20:20.520Z,100915.59
2023-04-21T09:22:49.705Z,100908.22
2023-04-21T09:25:19.993Z,100911.50
2023-04-21T09:27:48.087Z,100915.69
2023-04-21T09:30:19.361Z,100908.63
2023-04-21T09:32:46.822Z,100905.16
2023-04-21T09:35:15.260Z,100904.06
2023-04-21T09:37:46.285Z,100906.69
2023-04-21T09:40:15.347Z,100901.34
2023-04-21T09:42:44.547Z,100900.31
2023-04-21T09:47:50.630Z,100906.50
2023-04-21T09:50:41.797Z,100908.81
2023-04-21T09:53:12.301Z,100900.94
2023-04-21T09:55:42.187Z,100904.59
2023-04-21T09:58:10.342Z,100915.50
2023-04-21T10:00:39.910Z,100909.50
2023-04-21T10:03:11.549Z,100909.84
2023-04-21T10:05:42.189Z,100906.16
2023-04-21T10:08:11.723Z,100903.59
2023-04-21T10:10:40.525Z,100899.28
2023-04-21T10:13:12.900Z,100891.03
2023-04-21T10:15:41.856Z,100894.66
2023-04-21T10:18:16.677Z,100883.03
2023-04-21T10:20:54.251Z,100875.28
2023-04-21T10:23:27.931Z,100880.88
2023-04-21T10:26:01.356Z,100869.72
2023-04-21T10:28:48.968Z,100867.22
2023-04-21T10:31:22.854Z,100870.78
2023-04-21T10:34:08.389Z,100871.66
2023-04-21T10:36:43.666Z,100868.41
2023-04-21T10:39:15.768Z,100870.53
2023-04-21T10:41:44.480Z,100872.19
2023-04-21T10:44:13.445Z,100868.09
2023-04-21T10:46:45.839Z,100868.44
2023-04-21T10:49:21.805Z,100869.19
2023-04-21T10:52:02.703Z,100866.75
2023-04-21T10:54:36.521Z,100869.16
2023-04-21T10:57:07.793Z,100875.19
2023-04-21T10:59:36.063Z,100871.19
2023-04-21T11:02:05.587Z,100866.66
2023-04-21T11:04:33.842Z,100870.81
2023-04-21T11:07:16.527Z,100867.09
2023-04-21T11:09:44.745Z,100874.72
2023-04-21T11:12:13.123Z,100860.25
2023-04-21T11:14:42.121Z,100853.41
2023-04-21T11:17:13.262Z,100857.63
2023-04-21T11:19:41.345Z,100862.34
2023-04-21T11:22:09.105Z,100867.53
2023-04-21T11:24:36.589Z,100862.78
2023-04-21T11:27:08.018Z,100869.31
2023-04-21T11:29:35.733Z,100864.63
2023-04-21T11:32:06.076Z,100866.50
2023-04-21T11:34:33.571Z,100854.84
2023-04-21T11:37:00.804Z,100854.19
2023-04-21T11:39:28.141Z,100847.28
2023-04-21T11:41:55.882Z,100854.25
2023-04-21T11:44:36.819Z,100855.78
2023-04-21T11:47:13.831Z,100853.59
2023-04-21T11:49:45.379Z,100855.41
2023-04-21T11:52:20.840Z,100856.25
2023-04-21T11:54:48.346Z,100852.84
2023-04-21T11:57:19.356Z,100849.66
2023-04-21T11:59:48.025Z,100847.28
2023-04-21T12:02:23.433Z,100850.19
2023-04-21T12:04:58.149Z,100852.50
2023-04-21T12:07:25.667Z,100850.88
2023-04-21T12:09:53.738Z,100844.94
2023-04-21T12:12:23.240Z,100846.72
2023-04-21T12:14:51.801Z,100848.88
2023-04-21T12:17:19.389Z,100866.25
2023-04-21T12:19:47.326Z,100870.38
2023-04-21T12:22:16.452Z,100864.38
2023-04-21T12:24:44.117Z,100869.06
2023-04-21T12:27:12.410Z,100857.78
2023-04-21T12:29:41.366Z,100868.16
2023-04-21T12:32:09.613Z,100864.00
2023-04-21T12:34:37.007Z,100862.69
2023-04-21T12:37:04.963Z,100856.91
2023-04-21T12:39:32.488Z,100862.63
2023-04-21T12:42:01.729Z,100866.97
2023-04-21T12:44:29.373Z,100874.41
2023-04-21T12:46:57.438Z,100870.28
2023-04-21T12:49:25.767Z,100872.78
2023-04-21T12:51:53.142Z,100857.63
2023-04-21T12:54:20.940Z,100855.19
2023-04-21T12:56:48.510Z,100852.19
2023-04-21T12:59:15.776Z,100849.28
2023-04-21T13:01:44.133Z,100854.72
2023-04-21T13:04:11.923Z,100857.59
2023-04-21T13:06:39.610Z,100855.19
2023-04-21T13:09:07.665Z,100853.72
2023-04-21T13:11:35.901Z,100844.75
2023-04-21T13:14:04.295Z,100837.69
2023-04-21T13:16:32.210Z,100830.81
2023-04-21T13:18:59.958Z,100831.16
2023-04-21T13:21:27.893Z,100822.66
2023-04-21T13:23:57.389Z,100820.75
2023-04-21T13:26:25.888Z,100822.63
2023-04-21T13:28:53.235Z,100827.38
2023-04-21T13:31:21.511Z,100821.81
2023-04-21T13:33:48.984Z,100826.88
2023-04-21T13:36:16.574Z,100816.81
2023-04-21T13:38:43.976Z,100820.25
2023-04-21T13:41:11.770Z,100823.91
2023-04-21T13:43:39.437Z,100816.88
2023-04-21T13:46:06.903Z,100820.41
2023-04-21T13:48:34.364Z,100813.03
2023-04-21T13:51:02.113Z,100815.88
2023-04-21T13:53:29.804Z,100818.63
2023-04-21T13:55:58.361Z,100815.16
2023-04-21T13:58:26.761Z,100812.75
2023-04-21T14:00:54.916Z,100827.72
2023-04-21T14:03:22.717Z,100822.44
2023-04-21T14:05:50.215Z,100825.59
2023-04-21T14:08:17.886Z,100821.66
2023-04-21T14:10:45.732Z,100815.81
2023-04-21T14:13:26.918Z,100811.28
2023-04-21T14:16:00.610Z,100812.66
2023-04-21T14:18:28.429Z,100814.13
2023-04-21T14:20:55.771Z,100821.16
2023-04-21T14:23:23.657Z,100813.59
2023-04-21T14:25:52.305Z,100809.59
2023-04-21T14:28:20.382Z,100806.16
2023-04-21T14:30:47.745Z,100798.16
2023-04-21T14:33:15.432Z,100791.69
2023-04-21T14:35:42.824Z,100778.63
2023-04-21T14:38:10.140Z,100770.41
2023-04-21T14:40:37.542Z,100775.38
2023-04-21T14:43:04.820Z,100775.13
2023-04-21T14:45:32.450Z,100765.31
2023-04-21T14:48:00.372Z,100756.72
2023-04-21T14:50:28.268Z,100760.94
2023-04-21T14:52:55.989Z,100754.66
2023-04-21T14:55:23.676Z,100759.16
2023-04-21T14:57:52.328Z,100758.72
2023-04-21T15:00:20.697Z,100763.53
2023-04-21T15:02:48.230Z,100752.38
2023-04-21T15:05:15.976Z,100757.13
2023-04-21T15:07:43.345Z,100755.31
2023-04-21T15:10:11.288Z,100755.53
2023-04-21T15:12:41.949Z,100757.53
2023-04-21T15:15:11.062Z,100760.53
2023-04-21T15:17:38.996Z,100757.19
2023-04-21T15:20:06.705Z,100759.72
2023-04-21T15:22:33.960Z,100758.66
2023-04-21T15:25:01.365Z,100756.16
2023-04-21T15:27:29.142Z,100762.16
2023-04-21T15:29:56.570Z,100753.44
2023-04-21T15:32:24.574Z,100749.13
2023-04-21T15:34:52.381Z,100754.78
2023-04-21T15:37:23.495Z,100755.13
2023-04-21T15:39:52.377Z,100741.72
2023-04-21T15:42:20.373Z,100749.31
2023-04-21T15:44:48.299Z,100751.78
2023-04-21T15:47:17.051Z,100738.16
2023-04-21T15:49:44.406Z,100749.97
2023-04-21T15:52:12.315Z,100748.44
2023-04-21T15:54:39.979Z,100757.69
2023-04-21T15:57:07.534Z,100758.84
2023-04-21T15:59:35.364Z,100749.94
2023-04-21T16:02:03.822Z,100758.34
2023-04-21T16:04:31.991Z,100757.28
2023-04-21T16:06:59.357Z,100753.28
2023-04-21T16:09:26.822Z,100748.03
2023-04-21T16:11:54.346Z,100747.38
2023-04-21T16:14:22.659Z,100752.75
2023-04-21T16:16:50.557Z,100746.84
2023-04-21T16:19:18.140Z,100752.47
2023-04-21T16:21:45.533Z,100762.22
2023-04-21T16:24:13.019Z,100751.56
2023-04-21T16:26:40.937Z,100756.94
2023-04-21T16:29:08.952Z,100745.91
2023-04-21T16:31:36.454Z,100752.06
2023-04-21T16:34:04.272Z,100759.13
2023-04-21T16:36:33.064Z,100760.84
2023-04-21T16:39:00.826Z,100754.84
2023-04-21T16:41:30.418Z,100755.69
2023-04-21T16:43:58.434Z,100748.09
2023-04-21T16:46:25.739Z,100748.09
2023-04-21T16:48:53.113Z,100755.97
2023-04-21T16:51:21.040Z,100755.53
2023-04-21T16:53:48.358Z,100758.00
2023-04-21T16:56:16.103Z,100756.81
2023-04-21T16:58:43.955Z,100757.88
2023-04-21T17:01:11.802Z,100763.19
2023-04-21T17:03:39.670Z,100762.53
2023-04-21T17:06:10.791Z,100758.47
2023-04-21T17:08:38.190Z,100763.59
2023-04-21T17:11:05.992Z,100765.97
2023-04-21T17:13:35.297Z,100765.69
2023-04-21T17:16:03.500Z,100762.91
2023-04-21T17:18:30.880Z,100762.91
2023-04-21T17:20:58.560Z,100765.94
2023-04-21T17:23:26.221Z,100764.94
2023-04-21T17:25:54.007Z,100769.47
2023-04-21T17:28:21.464Z,100770.97
2023-04-21T17:30:48.670Z,100768.81
2023-04-21T17:33:17.684Z,100773.09
2023-04-21T17:35:59.876Z,100774.63
2023-04-21T17:38:31.552Z,100773.31
2023-04-21T17:40:59.836Z,100777.97
2023-04-21T17:43:27.335Z,100779.47
2023-04-21T17:45:55.147Z,100784.09
2023-04-21T17:48:22.510Z,100792.81
2023-04-21T17:50:50.576Z,100792.97
2023-04-21T17:53:19.001Z,100798.91
2023-04-21T17:55:46.442Z,100807.31
2023-04-21T17:58:13.945Z,100804.81
2023-04-21T18:00:41.396Z,100810.97
2023-04-21T18:03:09.458Z,100803.03
2023-04-21T18:05:36.820Z,100805.13
2023-04-21T18:08:04.256Z,100807.84
2023-04-21T18:10:31.996Z,100801.69
2023-04-21T18:12:59.749Z,100806.56
2023-04-21T18:15:27.178Z,100802.22
2023-04-21T18:17:55.045Z,100798.44
2023-04-21T18:20:23.201Z,100806.09
2023-04-21T18:22:51.800Z,100809.16
2023-04-21T18:25:30.767Z,100811.34
2023-04-21T18:28:07.545Z,100808.25
2023-04-21T18:30:34.930Z,100811.50
2023-04-21T18:33:03.005Z,100812.72
2023-04-21T18:35:31.990Z,100813.38
2023-04-21T18:37:59.872Z,100805.88
2023-04-21T18:40:27.709Z,100814.66
2023-04-21T18:42:55.892Z,100815.91
2023-04-21T18:45:23.251Z,100828.31
2023-04-21T18:47:51.026Z,100824.25
2023-04-21T18:50:19.125Z,100824.09
2023-04-21T18:52:46.387Z,100825.66
2023-04-21T18:55:14.255Z,100820.25
2023-04-21T18:57:41.548Z,100825.75
2023-04-21T19:00:09.992Z,100830.81
2023-04-21T19:02:37.899Z,100827.91
2023-04-21T19:05:06.248Z,100828.22
2023-04-21T19:07:34.571Z,100824.47
2023-04-21T19:10:02.258Z,100828.69
2023-04-21T19:12:29.964Z,100829.28
2023-04-21T19:14:57.466Z,100824.06
2023-04-21T19:17:26.068Z,100828.22
2023-04-21T19:19:54.062Z,100832.50
2023-04-21T19:22:21.683Z,100830.50
2023-04-21T19:24:48.973Z,100829.44
2023-04-21T19:27:16.258Z,100834.03
2023-04-21T19:29:44.079Z,100845.91
2023-04-21T19:32:11.966Z,100845.00
2023-04-21T19:34:39.845Z,100844.25
2023-04-21T19:37:07.913Z,100853.88
2023-04-21T19:39:35.538Z,100845.31
2023-04-21T19:42:03.769Z,100838.97
2023-04-21T19:44:31.935Z,100841.72
2023-04-21T19:47:00.171Z,100846.59
2023-04-21T19:49:27.857Z,100849.22
2023-04-21T19:51:55.130Z,100843.44
2023-04-21T19:54:22.838Z,100844.22
2023-04-21T19:56:50.396Z,100850.69
2023-04-21T19:59:18.073Z,100851.72
2023-04-21T20:01:45.902Z,100855.09
2023-04-21T20:04:13.503Z,100851.34
2023-04-21T20:06:41.762Z,100855.41
2023-04-21T20:09:10.454Z,100854.56
2023-04-21T20:11:38.181Z,100851.78
2023-04-21T20:14:05.650Z,100858.75
2023-04-21T20:16:34.415Z,100861.38
2023-04-21T20:19:02.423Z,100864.47
2023-04-21T20:21:30.401Z,100859.16
2023-04-21T20:23:57.700Z,100856.63
2023-04-21T20:26:25.070Z,100857.31
2023-04-21T20:28:52.950Z,100856.78
2023-04-21T20:31:23.886Z,100862.78
2023-04-21T20:33:51.535Z,100867.09
2023-04-21T20:36:18.779Z,100865.88
2023-04-21T20:38:46.601Z,100860.00
2023-04-21T20:41:14.893Z,100860.97
2023-04-21T20:43:42.645Z,100865.44
2023-04-21T20:46:10.408Z,100868.38
2023-04-21T20:48:38.091Z,100871.44
2023-04-21T20:51:05.905Z,100867.38
2023-04-21T20:53:33.556Z,100862.91
2023-04-21T20:56:01.221Z,100866.41
2023-04-21T20:58:28.472Z,100872.13
2023-04-21T21:00:56.352Z,100869.50
2023-04-21T21:03:24.257Z,100870.72
2023-04-21T21:05:51.759Z,100869.50
2023-04-21T21:08:19.490Z,100871.81
2023-04-21T21:10:47.187Z,100875.31
2023-04-21T21:13:14.606Z,100873.81
2023-04-21T21:15:42.883Z,100875.59
2023-04-21T21:18:10.227Z,100875.06
2023-04-21T21:20:37.914Z,100886.69
2023-04-21T21:23:05.966Z,100887.50
2023-04-21T21:25:33.948Z,100887.50
2023-04-21T21:28:01.374Z,100893.13
2023-04-21T21:30:29.124Z,100904.28
2023-04-21T21:32:56.533Z,100905.84
2023-04-21T21:35:23.850Z,100899.84
2023-04-21T21:37:52.115Z,100904.41
2023-04-21T21:40:19.614Z,100897.19
2023-04-21T21:42:47.005Z,100903.09
2023-04-21T21:45:14.638Z,100900.44
2023-04-21T21:47:45.413Z,100904.06
2023-04-21T21:50:13.161Z,100899.38
2023-04-21T21:52:40.762Z,100887.03
2023-04-21T21:55:08.328Z,100895.09
2023-04-21T21:57:36.985Z,100898.19
2023-04-21T22:00:08.288Z,100904.72
2023-04-21T22:02:35.990Z,100908.75
2023-04-21T22:05:06.249Z,100901.59
2023-04-21T22:07:35.486Z,100900.72
2023-04-21T22:10:03.685Z,100909.22
2023-04-21T22:12:32.238Z,100904.81
2023-04-21T22:14:59.492Z,100909.94
2023-04-21T22:17:27.810Z,100908.06
2023-04-21T22:19:56.038Z,100907.72
2023-04-21T22:22:23.826Z,100915.13
2023-04-21T22:24:51.485Z,100910.22
2023-04-21T22:27:18.780Z,100912.81
2023-04-21T22:29:46.200Z,100909.44
2023-04-21T22:32:13.506Z,100918.41
2023-04-21T22:34:41.205Z,100909.94
2023-04-21T22:37:09.481Z,100907.38
2023-04-21T22:39:38.726Z,100907.72
2023-04-21T22:42:07.073Z,100907.59
2023-04-21T22:44:34.991Z,100907.72
2023-04-21T22:47:04.321Z,100904.72
2023-04-21T22:49:31.643Z,100912.97
2023-04-21T22:51:58.973Z,100903.78
2023-04-21T22:54:26.456Z,100909.03
2023-04-21T22:56:54.347Z,100913.94
2023-04-21T22:59:21.566Z,100904.34
2023-04-21T23:01:49.911Z,100910.78
2023-04-21T23:04:17.963Z,100905.03
2023-04-21T23:06:45.818Z,100902.00
2023-04-21T23:09:13.204Z,100894.56
2023-04-21T23:11:40.604Z,100899.66
2023-04-21T23:14:07.865Z,100902.97
2023-04-21T23:16:35.315Z,100914.38
2023-04-21T23:19:03.091Z,100907.41
2023-04-21T23:21:31.724Z,100908.25
2023-04-21T23:23:59.624Z,100899.84
2023-04-21T23:26:27.345Z,100918.91
2023-04-21T23:28:54.590Z,100914.00
2023-04-21T23:31:21.969Z,100907.09
2023-04-21T23:33:49.688Z,100906.84
2023-04-21T23:36:17.405Z,100901.94
2023-04-21T23:38:44.682Z,100900.00
2023-04-21T23:41:12.136Z,100891.56
2023-04-21T23:43:39.959Z,100898.00
2023-04-21T23:46:08.116Z,100898.13
2023-04-21T23:48:35.861Z,100895.50
2023-04-21T23:51:03.270Z,100898.34
2023-04-21T23:53:30.742Z,100898.41
2023-04-21T23:55:58.210Z,100895.53
2023-04-21T23:58:25.987Z,100893.81
